sensor_id;sensor_type;location;lat;lon;timestamp;pressure;altitude;pressure_sealevel;temperature;humidity
51313;BME280;37397;53.226;10.400;2023-03-11T00:00:37;99304.16;;;2.77;72.53
51313;BME280;37397;53.226;10.400;2023-03-11T00:03:06;99309.00;;;2.76;72.44
51313;BME280;37397;53.226;10.400;2023-03-11T00:05:36;99303.84;;;2.74;72.63
51313;BME280;37397;53.226;10.400;2023-03-11T00:08:05;99328.72;;;2.76;72.48
51313;BME280;37397;53.226;10.400;2023-03-11T00:10:34;99334.50;;;2.72;72.35
51313;BME280;37397;53.226;10.400;2023-03-11T00:13:02;99334.16;;;2.70;72.34
51313;BME280;37397;53.226;10.400;2023-03-11T00:15:29;99346.53;;;2.73;72.47
51313;BME280;37397;53.226;10.400;2023-03-11T00:17:56;99349.38;;;2.73;72.38
51313;BME280;37397;53.226;10.400;2023-03-11T00:20:26;99350.59;;;2.72;72.52
51313;BME280;37397;53.226;10.400;2023-03-11T00:22:53;99373.13;;;2.72;72.48
51313;BME280;37397;53.226;10.400;2023-03-11T00:25:23;99367.97;;;2.70;72.58
51313;BME280;37397;53.226;10.400;2023-03-11T00:27:50;99378.00;;;2.71;72.24
51313;BME280;37397;53.226;10.400;2023-03-11T00:30:18;99384.41;;;2.72;72.55
51313;BME280;37397;53.226;10.400;2023-03-11T00:32:47;99388.47;;;2.71;72.63
51313;BME280;37397;53.226;10.400;2023-03-11T00:35:17;99398.94;;;2.70;72.53
51313;BME280;37397;53.226;10.400;2023-03-11T00:37:45;99404.25;;;2.68;72.35
51313;BME280;37397;53.226;10.400;2023-03-11T00:40:13;99412.25;;;2.70;72.42
51313;BME280;37397;53.226;10.400;2023-03-11T00:42:40;99417.88;;;2.70;72.40
51313;BME280;37397;53.226;10.400;2023-03-11T00:45:09;99424.78;;;2.69;72.50
51313;BME280;37397;53.226;10.400;2023-03-11T00:47:36;99424.78;;;2.69;72.44
51313;BME280;37397;53.226;10.400;2023-03-11T00:50:03;99429.59;;;2.68;72.73
51313;BME280;37397;53.226;10.400;2023-03-11T00:52:30;99444.50;;;2.69;72.59
51313;BME280;37397;53.226;10.400;2023-03-11T00:54:57;99433.69;;;2.67;72.65
51313;BME280;37397;53.226;10.400;2023-03-11T00:57:25;99447.56;;;2.62;72.58
51313;BME280;37397;53.226;10.400;2023-03-11T00:59:55;99444.16;;;2.67;72.34
51313;BME280;37397;53.226;10.400;2023-03-11T01:02:23;99466.69;;;2.67;72.63
51313;BME280;37397;53.226;10.400;2023-03-11T01:04:53;99454.63;;;2.66;72.53
51313;BME280;37397;53.226;10.400;2023-03-11T01:07:21;99458.06;;;2.61;72.29
51313;BME280;37397;53.226;10.400;2023-03-11T01:09:48;99474.81;;;2.65;72.45
51313;BME280;37397;53.226;10.400;2023-03-11T01:12:14;99474.81;;;2.65;72.54
51313;BME280;37397;53.226;10.400;2023-03-11T01:14:41;99481.22;;;2.65;72.25
51313;BME280;37397;53.226;10.400;2023-03-11T01:17:07;99489.66;;;2.65;72.46
51313;BME280;37397;53.226;10.400;2023-03-11T01:19:34;99489.66;;;2.65;72.40
51313;BME280;37397;53.226;10.400;2023-03-11T01:22:00;99493.28;;;2.66;72.39
51313;BME280;37397;53.226;10.400;2023-03-11T01:24:27;99496.09;;;2.66;72.39
51313;BME280;37397;53.226;10.400;2023-03-11T01:26:53;99504.56;;;2.66;72.35
51313;BME280;37397;53.226;10.400;2023-03-11T01:29:23;99510.97;;;2.66;72.21
51313;BME280;37397;53.226;10.400;2023-03-11T01:31:49;99516.59;;;2.66;72.30
51313;BME280;37397;53.226;10.400;2023-03-11T01:34:16;99516.28;;;2.64;72.20
51313;BME280;37397;53.226;10.400;2023-03-11T01:36:42;99522.22;;;2.66;72.39
51313;BME280;37397;53.226;10.400;2023-03-11T01:39:09;99529.91;;;2.66;72.43
51313;BME280;37397;53.226;10.400;2023-03-11T01:41:36;99521.91;;;2.64;72.27
51313;BME280;37397;53.226;10.400;2023-03-11T01:44:03;99529.09;;;2.65;72.54
51313;BME280;37397;53.226;10.400;2023-03-11T01:46:36;99531.13;;;2.65;72.29
51313;BME280;37397;53.226;10.400;2023-03-11T01:49:07;99531.91;;;2.65;72.54
51313;BME280;37397;53.226;10.400;2023-03-11T01:51:40;99530.16;;;2.59;71.98
51313;BME280;37397;53.226;10.400;2023-03-11T01:54:21;99530.59;;;2.57;72.27
51313;BME280;37397;53.226;10.400;2023-03-11T01:56:49;99543.31;;;2.62;72.50
51313;BME280;37397;53.226;10.400;2023-03-11T01:59:24;99548.94;;;2.62;72.42
51313;BME280;37397;53.226;10.400;2023-03-11T02:01:59;99553.00;;;2.61;72.41
51313;BME280;37397;53.226;10.400;2023-03-11T02:04:28;99557.41;;;2.62;72.38
51313;BME280;37397;53.226;10.400;2023-03-11T02:06:55;99565.84;;;2.62;72.31
51313;BME280;37397;53.226;10.400;2023-03-11T02:09:22;99553.91;;;2.58;72.42
51313;BME280;37397;53.226;10.400;2023-03-11T02:11:50;99569.56;;;2.59;72.37
51313;BME280;37397;53.226;10.400;2023-03-11T02:14:16;99575.53;;;2.61;72.60
51313;BME280;37397;53.226;10.400;2023-03-11T02:16:44;99572.72;;;2.61;72.33
51313;BME280;37397;53.226;10.400;2023-03-11T02:19:30;99586.00;;;2.60;72.33
51313;BME280;37397;53.226;10.400;2023-03-11T02:22:01;99578.03;;;2.59;72.33
51313;BME280;37397;53.226;10.400;2023-03-11T02:24:42;99584.44;;;2.59;72.18
51313;BME280;37397;53.226;10.400;2023-03-11T02:27:13;99585.25;;;2.60;72.32
51313;BME280;37397;53.226;10.400;2023-03-11T02:29:44;99590.88;;;2.60;72.44
51313;BME280;37397;53.226;10.400;2023-03-11T02:32:13;99600.09;;;2.60;72.48
51313;BME280;37397;53.226;10.400;2023-03-11T02:34:42;99609.31;;;2.61;72.38
51313;BME280;37397;53.226;10.400;2023-03-11T02:37:13;99608.00;;;2.52;72.37
51313;BME280;37397;53.226;10.400;2023-03-11T02:39:46;99624.00;;;2.55;72.24
51313;BME280;37397;53.226;10.400;2023-03-11T02:44:49;99631.84;;;2.61;72.21
51313;BME280;37397;53.226;10.400;2023-03-11T02:47:17;99649.19;;;2.59;72.24
51313;BME280;37397;53.226;10.400;2023-03-11T02:49:44;99654.38;;;2.61;72.38
51313;BME280;37397;53.226;10.400;2023-03-11T02:52:11;99656.88;;;2.59;72.41
51313;BME280;37397;53.226;10.400;2023-03-11T02:54:38;99654.84;;;2.59;72.23
51313;BME280;37397;53.226;10.400;2023-03-11T02:57:04;99658.47;;;2.60;72.13
51313;BME280;37397;53.226;10.400;2023-03-11T02:59:31;99668.13;;;2.59;72.29
51313;BME280;37397;53.226;10.400;2023-03-11T03:01:59;99680.19;;;2.59;72.23
51313;BME280;37397;53.226;10.400;2023-03-11T03:04:26;99676.72;;;2.55;72.19
51313;BME280;37397;53.226;10.400;2023-03-11T03:06:55;99682.22;;;2.59;72.37
51313;BME280;37397;53.226;10.400;2023-03-11T03:09:21;99685.81;;;2.59;72.36
51313;BME280;37397;53.226;10.400;2023-03-11T03:11:48;99684.25;;;2.58;72.13
51313;BME280;37397;53.226;10.400;2023-03-11T03:14:14;99693.47;;;2.59;72.45
51313;BME280;37397;53.226;10.400;2023-03-11T03:16:41;99692.25;;;2.60;72.11
51313;BME280;37397;53.226;10.400;2023-03-11T03:19:08;99689.06;;;2.58;72.03
51313;BME280;37397;53.226;10.400;2023-03-11T03:21:35;99690.00;;;2.54;72.25
51313;BME280;37397;53.226;10.400;2023-03-11T03:24:02;99699.09;;;2.59;72.54
51313;BME280;37397;53.226;10.400;2023-03-11T03:26:30;99701.16;;;2.58;72.28
51313;BME280;37397;53.226;10.400;2023-03-11T03:28:57;99710.81;;;2.57;72.24
51313;BME280;37397;53.226;10.400;2023-03-11T03:31:23;99711.59;;;2.58;72.26
51313;BME280;37397;53.226;10.400;2023-03-11T03:33:50;99720.88;;;2.58;72.13
51313;BME280;37397;53.226;10.400;2023-03-11T03:36:17;99724.59;;;2.55;72.13
51313;BME280;37397;53.226;10.400;2023-03-11T03:38:53;99726.94;;;2.57;71.89
51313;BME280;37397;53.226;10.400;2023-03-11T03:41:21;99734.13;;;2.58;72.14
51313;BME280;37397;53.226;10.400;2023-03-11T03:43:48;99739.00;;;2.57;71.89
51313;BME280;37397;53.226;10.400;2023-03-11T03:46:15;99738.22;;;2.57;71.70
51313;BME280;37397;53.226;10.400;2023-03-11T03:48:46;99755.09;;;2.57;72.14
51313;BME280;37397;53.226;10.400;2023-03-11T03:51:14;99761.97;;;2.55;72.15
51313;BME280;37397;53.226;10.400;2023-03-11T03:53:52;99764.78;;;2.55;72.15
51313;BME280;37397;53.226;10.400;2023-03-11T03:56:19;99764.47;;;2.53;72.22
51313;BME280;37397;53.226;10.400;2023-03-11T03:58:46;99771.69;;;2.54;72.17
51313;BME280;37397;53.226;10.400;2023-03-11T04:01:13;99776.06;;;2.55;71.93
51313;BME280;37397;53.226;10.400;2023-03-11T04:03:40;99768.84;;;2.54;72.04
51313;BME280;37397;53.226;10.400;2023-03-11T04:06:19;99777.75;;;2.53;71.96
51313;BME280;37397;53.226;10.400;2023-03-11T04:08:51;99789.03;;;2.53;72.00
51313;BME280;37397;53.226;10.400;2023-03-11T04:11:21;99790.25;;;2.52;72.28
51313;BME280;37397;53.226;10.400;2023-03-11T04:13:48;99791.84;;;2.53;72.02
51313;BME280;37397;53.226;10.400;2023-03-11T04:16:20;99789.47;;;2.51;71.98
51313;BME280;37397;53.226;10.400;2023-03-11T04:18:49;99785.19;;;2.47;72.16
51313;BME280;37397;53.226;10.400;2023-03-11T04:21:16;99797.22;;;2.47;71.97
51313;BME280;37397;53.226;10.400;2023-03-11T04:23:44;99802.88;;;2.47;71.95
51313;BME280;37397;53.226;10.400;2023-03-11T04:26:13;99810.09;;;2.48;72.03
51313;BME280;37397;53.226;10.400;2023-03-11T04:28:40;99806.47;;;2.48;72.00
51313;BME280;37397;53.226;10.400;2023-03-11T04:31:07;99814.91;;;2.48;72.09
51313;BME280;37397;53.226;10.400;2023-03-11T04:33:34;99808.50;;;2.47;71.88
51313;BME280;37397;53.226;10.400;2023-03-11T04:36:05;99820.97;;;2.46;71.88
51313;BME280;37397;53.226;10.400;2023-03-11T04:38:34;99814.13;;;2.47;71.86
51313;BME280;37397;53.226;10.400;2023-03-11T04:41:03;99827.44;;;2.47;71.83
51313;BME280;37397;53.226;10.400;2023-03-11T04:43:30;99822.25;;;2.45;71.80
51313;BME280;37397;53.226;10.400;2023-03-11T04:45:57;99833.50;;;2.45;71.63
51313;BME280;37397;53.226;10.400;2023-03-11T04:48:24;99835.53;;;2.45;72.07
51313;BME280;37397;53.226;10.400;2023-03-11T04:50:52;99830.34;;;2.43;71.82
51313;BME280;37397;53.226;10.400;2023-03-11T04:53:21;99844.00;;;2.45;71.92
51313;BME280;37397;53.226;10.400;2023-03-11T04:55:49;99838.81;;;2.43;71.59
51313;BME280;37397;53.226;10.400;2023-03-11T04:58:16;99840.03;;;2.42;71.93
51313;BME280;37397;53.226;10.400;2023-03-11T05:00:45;99839.25;;;2.42;71.81
51313;BME280;37397;53.226;10.400;2023-03-11T05:03:13;99841.25;;;2.41;72.02
51313;BME280;37397;53.226;10.400;2023-03-11T05:05:40;99845.34;;;2.40;71.64
51313;BME280;37397;53.226;10.400;2023-03-11T05:08:07;99838.22;;;2.35;71.85
51313;BME280;37397;53.226;10.400;2023-03-11T05:10:34;99854.66;;;2.37;71.94
51313;BME280;37397;53.226;10.400;2023-03-11T05:13:03;99852.97;;;2.40;71.85
51313;BME280;37397;53.226;10.400;2023-03-11T05:15:34;99863.44;;;2.39;71.81
51313;BME280;37397;53.226;10.400;2023-03-11T05:18:03;99869.09;;;2.39;71.76
51313;BME280;37397;53.226;10.400;2023-03-11T05:20:32;99871.91;;;2.39;71.99
51313;BME280;37397;53.226;10.400;2023-03-11T05:22:58;99874.72;;;2.39;72.05
51313;BME280;37397;53.226;10.400;2023-03-11T05:25:27;99872.34;;;2.37;71.92
51313;BME280;37397;53.226;10.400;2023-03-11T05:27:54;99879.56;;;2.39;71.76
51313;BME280;37397;53.226;10.400;2023-03-11T05:30:21;99881.56;;;2.38;71.79
51313;BME280;37397;53.226;10.400;2023-03-11T05:32:48;99886.41;;;2.37;71.84
51313;BME280;37397;53.226;10.400;2023-03-11T05:35:15;99894.88;;;2.37;71.84
51313;BME280;37397;53.226;10.400;2023-03-11T05:37:42;99886.53;;;2.34;71.79
51313;BME280;37397;53.226;10.400;2023-03-11T05:40:10;99900.50;;;2.37;71.90
51313;BME280;37397;53.226;10.400;2023-03-11T05:42:37;99914.25;;;2.35;71.63
51313;BME280;37397;53.226;10.400;2023-03-11T05:45:08;99926.28;;;2.36;72.05
51313;BME280;37397;53.226;10.400;2023-03-11T05:47:36;99940.34;;;2.36;71.70
51313;BME280;37397;53.226;10.400;2023-03-11T05:50:04;99938.78;;;2.35;71.81
51313;BME280;37397;53.226;10.400;2023-03-11T05:52:31;99945.22;;;2.35;71.44
51313;BME280;37397;53.226;10.400;2023-03-11T05:54:59;99950.84;;;2.35;71.56
51313;BME280;37397;53.226;10.400;2023-03-11T05:57:28;99952.06;;;2.34;71.49
51313;BME280;37397;53.226;10.400;2023-03-11T05:59:55;99939.31;;;2.30;71.63
51313;BME280;37397;53.226;10.400;2023-03-11T06:02:22;99954.44;;;2.36;71.68
51313;BME280;37397;53.226;10.400;2023-03-11T06:04:49;99955.66;;;2.35;72.04
51313;BME280;37397;53.226;10.400;2023-03-11T06:07:17;99964.09;;;2.35;71.72
51313;BME280;37397;53.226;10.400;2023-03-11T06:09:48;99972.22;;;2.33;71.49
51313;BME280;37397;53.226;10.400;2023-03-11T06:12:17;99979.88;;;2.32;71.63
51313;BME280;37397;53.226;10.400;2023-03-11T06:14:54;99970.72;;;2.28;71.69
51313;BME280;37397;53.226;10.400;2023-03-11T06:17:21;99976.28;;;2.32;71.55
51313;BME280;37397;53.226;10.400;2023-03-11T06:19:47;99980.31;;;2.31;71.66
51313;BME280;37397;53.226;10.400;2023-03-11T06:22:14;99981.53;;;2.30;71.45
51313;BME280;37397;53.226;10.400;2023-03-11T06:24:41;100001.25;;;2.30;71.46
51313;BME280;37397;53.226;10.400;2023-03-11T06:27:08;99999.69;;;2.29;71.35
51313;BME280;37397;53.226;10.400;2023-03-11T06:29:38;100000.91;;;2.28;71.64
51313;BME280;37397;53.226;10.400;2023-03-11T06:32:05;100003.38;;;2.26;71.44
51313;BME280;37397;53.226;10.400;2023-03-11T06:34:32;100015.09;;;2.24;71.38
51313;BME280;37397;53.226;10.400;2023-03-11T06:37:00;100024.31;;;2.25;71.65
51313;BME280;37397;53.226;10.400;2023-03-11T06:39:26;100016.75;;;2.22;71.40
51313;BME280;37397;53.226;10.400;2023-03-11T06:41:53;100024.31;;;2.25;71.57
51313;BME280;37397;53.226;10.400;2023-03-11T06:44:20;100026.44;;;2.21;71.53
51313;BME280;37397;53.226;10.400;2023-03-11T06:46:47;100029.63;;;2.23;71.58
51313;BME280;37397;53.226;10.400;2023-03-11T06:49:15;100033.66;;;2.22;71.75
51313;BME280;37397;53.226;10.400;2023-03-11T06:51:43;100042.44;;;2.24;71.64
51313;BME280;37397;53.226;10.400;2023-03-11T06:54:11;100048.88;;;2.24;71.69
51313;BME280;37397;53.226;10.400;2023-03-11T06:56:38;100055.28;;;2.25;71.73
51313;BME280;37397;53.226;10.400;2023-03-11T06:59:06;100062.50;;;2.26;71.81
51313;BME280;37397;53.226;10.400;2023-03-11T07:01:33;100062.50;;;2.26;71.84
51313;BME280;37397;53.226;10.400;2023-03-11T07:04:03;100060.13;;;2.24;71.90
51313;BME280;37397;53.226;10.400;2023-03-11T07:06:31;100068.47;;;2.28;71.67
51313;BME280;37397;53.226;10.400;2023-03-11T07:09:19;100067.25;;;2.29;71.80
51313;BME280;37397;53.226;10.400;2023-03-11T07:11:48;100070.94;;;2.26;71.94
51313;BME280;37397;53.226;10.400;2023-03-11T07:14:21;100072.06;;;2.28;71.85
51313;BME280;37397;53.226;10.400;2023-03-11T07:16:53;100073.66;;;2.29;71.86
51313;BME280;37397;53.226;10.400;2023-03-11T07:19:29;100070.84;;;2.29;72.04
51313;BME280;37397;53.226;10.400;2023-03-11T07:21:55;100076.03;;;2.31;71.96
51313;BME280;37397;53.226;10.400;2023-03-11T07:24:21;100076.03;;;2.31;71.82
51313;BME280;37397;53.226;10.400;2023-03-11T07:26:48;100086.06;;;2.32;71.82
51313;BME280;37397;53.226;10.400;2023-03-11T07:29:14;100094.53;;;2.32;71.91
51313;BME280;37397;53.226;10.400;2023-03-11T07:31:41;100100.94;;;2.32;72.10
51313;BME280;37397;53.226;10.400;2023-03-11T07:34:10;100100.50;;;2.34;71.94
51313;BME280;37397;53.226;10.400;2023-03-11T07:36:39;100108.13;;;2.33;71.99
51313;BME280;37397;53.226;10.400;2023-03-11T07:39:07;100119.38;;;2.33;72.15
51313;BME280;37397;53.226;10.400;2023-03-11T07:41:38;100120.19;;;2.34;71.89
51313;BME280;37397;53.226;10.400;2023-03-11T07:44:04;100118.94;;;2.35;72.18
51313;BME280;37397;53.226;10.400;2023-03-11T07:46:31;100121.75;;;2.35;71.95
51313;BME280;37397;53.226;10.400;2023-03-11T07:48:59;100130.59;;;2.37;72.01
51313;BME280;37397;53.226;10.400;2023-03-11T07:51:29;100136.22;;;2.37;72.13
51313;BME280;37397;53.226;10.400;2023-03-11T07:53:57;100149.91;;;2.35;72.15
51313;BME280;37397;53.226;10.400;2023-03-11T07:56:25;100156.69;;;2.37;71.92
51313;BME280;37397;53.226;10.400;2023-03-11T07:58:52;100161.91;;;2.39;72.24
51313;BME280;37397;53.226;10.400;2023-03-11T08:01:24;100173.94;;;2.40;72.16
51313;BME280;37397;53.226;10.400;2023-03-11T08:03:52;100168.31;;;2.40;72.21
51313;BME280;37397;53.226;10.400;2023-03-11T08:06:25;100180.38;;;2.40;72.33
51313;BME280;37397;53.226;10.400;2023-03-11T08:08:51;100179.56;;;2.40;72.26
51313;BME280;37397;53.226;10.400;2023-03-11T08:11:18;100182.03;;;2.37;72.21
51313;BME280;37397;53.226;10.400;2023-03-11T08:13:46;100192.00;;;2.42;72.29
51313;BME280;37397;53.226;10.400;2023-03-11T08:16:16;100197.97;;;2.44;72.34
51313;BME280;37397;53.226;10.400;2023-03-11T08:18:43;100196.41;;;2.43;72.44
51313;BME280;37397;53.226;10.400;2023-03-11T08:21:12;100220.84;;;2.46;72.45
51313;BME280;37397;53.226;10.400;2023-03-11T08:23:39;100207.66;;;2.43;72.68
51313;BME280;37397;53.226;10.400;2023-03-11T08:26:09;100222.78;;;2.49;72.45
51313;BME280;37397;53.226;10.400;2023-03-11T08:28:36;100222.78;;;2.49;72.43
51313;BME280;37397;53.226;10.400;2023-03-11T08:31:11;100221.91;;;2.52;72.34
51313;BME280;37397;53.226;10.400;2023-03-11T08:33:37;100226.31;;;2.53;72.32
51313;BME280;37397;53.226;10.400;2023-03-11T08:36:04;100225.09;;;2.54;72.38
51313;BME280;37397;53.226;10.400;2023-03-11T08:38:31;100233.88;;;2.57;72.26
51313;BME280;37397;53.226;10.400;2023-03-11T08:40:58;100228.69;;;2.55;72.15
51313;BME280;37397;53.226;10.400;2023-03-11T08:43:24;100242.66;;;2.59;72.33
51313;BME280;37397;53.226;10.400;2023-03-11T08:45:51;100238.63;;;2.60;72.17
51313;BME280;37397;53.226;10.400;2023-03-11T08:48:17;100240.19;;;2.61;72.19
51313;BME280;37397;53.226;10.400;2023-03-11T08:50:44;100243.81;;;2.61;72.47
51313;BME280;37397;53.226;10.400;2023-03-11T08:53:21;100241.69;;;2.65;72.36
51313;BME280;37397;53.226;10.400;2023-03-11T08:55:49;100249.69;;;2.67;72.29
51313;BME280;37397;53.226;10.400;2023-03-11T08:58:16;100260.97;;;2.67;72.44
51313;BME280;37397;53.226;10.400;2023-03-11T09:00:43;100258.53;;;2.69;72.32
51313;BME280;37397;53.226;10.400;2023-03-11T09:03:09;100254.47;;;2.70;72.40
51313;BME280;37397;53.226;10.400;2023-03-11T09:05:36;100264.50;;;2.71;72.33
51313;BME280;37397;53.226;10.400;2023-03-11T09:08:03;100267.31;;;2.71;72.26
51313;BME280;37397;53.226;10.400;2023-03-11T09:10:31;100271.25;;;2.73;72.16
51313;BME280;37397;53.226;10.400;2023-03-11T09:12:58;100273.63;;;2.75;72.24
51313;BME280;37397;53.226;10.400;2023-03-11T09:15:24;100269.59;;;2.76;72.39
51313;BME280;37397;53.226;10.400;2023-03-11T09:17:51;100263.97;;;2.76;72.21
51313;BME280;37397;53.226;10.400;2023-03-11T09:20:18;100275.13;;;2.80;72.30
51313;BME280;37397;53.226;10.400;2023-03-11T09:22:45;100275.94;;;2.80;72.30
51313;BME280;37397;53.226;10.400;2023-03-11T09:25:12;100286.31;;;2.83;72.01
51313;BME280;37397;53.226;10.400;2023-03-11T09:27:38;100285.97;;;2.81;72.27
51313;BME280;37397;53.226;10.400;2023-03-11T09:30:08;100282.72;;;2.83;72.23
51313;BME280;37397;53.226;10.400;2023-03-11T09:32:35;100295.91;;;2.86;72.07
51313;BME280;37397;53.226;10.400;2023-03-11T09:35:02;100290.28;;;2.86;72.04
51313;BME280;37397;53.226;10.400;2023-03-11T09:37:28;100291.44;;;2.88;71.76
51313;BME280;37397;53.226;10.400;2023-03-11T09:39:55;100301.47;;;2.89;72.11
51313;BME280;37397;53.226;10.400;2023-03-11T09:42:33;100303.84;;;2.91;71.88
51313;BME280;37397;53.226;10.400;2023-03-11T09:45:08;100299.03;;;2.91;72.04
51313;BME280;37397;53.226;10.400;2023-03-11T09:51:17;100311.66;;;2.83;71.55
51313;BME280;37397;53.226;10.400;2023-03-11T09:53:50;100313.53;;;2.90;71.69
51313;BME280;37397;53.226;10.400;2023-03-11T09:56:21;100312.66;;;2.93;71.66
51313;BME280;37397;53.226;10.400;2023-03-11T09:58:49;100315.00;;;2.95;71.57
51313;BME280;37397;53.226;10.400;2023-03-11T10:01:32;100316.63;;;2.96;71.72
51313;BME280;37397;53.226;10.400;2023-03-11T10:04:10;100311.31;;;2.98;71.78
51313;BME280;37397;53.226;10.400;2023-03-11T10:06:40;100309.38;;;2.95;71.58
51313;BME280;37397;53.226;10.400;2023-03-11T10:09:36;100330.16;;;3.01;71.58
51313;BME280;37397;53.226;10.400;2023-03-11T10:14:51;100324.09;;;3.02;71.60
51313;BME280;37397;53.226;10.400;2023-03-11T10:17:45;100321.19;;;3.06;71.74
51313;BME280;37397;53.226;10.400;2023-03-11T10:20:23;100332.38;;;3.09;71.76
51313;BME280;37397;53.226;10.400;2023-03-11T10:23:01;100324.38;;;3.08;71.62
51313;BME280;37397;53.226;10.400;2023-03-11T10:25:48;100318.81;;;3.04;71.53
51313;BME280;37397;53.226;10.400;2023-03-11T10:28:18;100329.81;;;3.15;71.60
51313;BME280;37397;53.226;10.400;2023-03-11T10:30:53;100334.56;;;3.18;71.30
51313;BME280;37397;53.226;10.400;2023-03-11T10:33:38;100333.88;;;3.14;71.65
51313;BME280;37397;53.226;10.400;2023-03-11T10:36:18;100342.13;;;3.21;71.57
51313;BME280;37397;53.226;10.400;2023-03-11T10:38:50;100349.72;;;3.24;71.57
51313;BME280;37397;53.226;10.400;2023-03-11T10:41:23;100340.03;;;3.25;71.26
51313;BME280;37397;53.226;10.400;2023-03-11T10:44:02;100353.69;;;3.27;71.26
51313;BME280;37397;53.226;10.400;2023-03-11T10:46:31;100345.13;;;3.31;71.23
51313;BME280;37397;53.226;10.400;2023-03-11T10:48:57;100347.94;;;3.31;71.57
51313;BME280;37397;53.226;10.400;2023-03-11T10:51:31;100339.03;;;3.32;71.35
51313;BME280;37397;53.226;10.400;2023-03-11T10:54:00;100349.00;;;3.37;71.39
51313;BME280;37397;53.226;10.400;2023-03-11T10:56:38;100342.09;;;3.38;71.29
51313;BME280;37397;53.226;10.400;2023-03-11T10:59:25;100349.34;;;3.39;70.86
51313;BME280;37397;53.226;10.400;2023-03-11T11:02:00;100346.88;;;3.41;71.17
51313;BME280;37397;53.226;10.400;2023-03-11T11:04:30;100352.41;;;3.44;71.13
51313;BME280;37397;53.226;10.400;2023-03-11T11:07:19;100345.38;;;3.36;71.07
51313;BME280;37397;53.226;10.400;2023-03-11T11:09:49;100352.31;;;3.48;70.97
51313;BME280;37397;53.226;10.400;2023-03-11T11:12:33;100355.59;;;3.46;71.03
51313;BME280;37397;53.226;10.400;2023-03-11T11:15:00;100361.47;;;3.52;70.87
51313;BME280;37397;53.226;10.400;2023-03-11T11:17:30;100362.63;;;3.55;71.10
51313;BME280;37397;53.226;10.400;2023-03-11T11:19:59;100367.00;;;3.56;70.74
51313;BME280;37397;53.226;10.400;2023-03-11T11:22:27;100355.38;;;3.54;70.64
51313;BME280;37397;53.226;10.400;2023-03-11T11:24:54;100343.31;;;3.53;70.75
51313;BME280;37397;53.226;10.400;2023-03-11T11:27:24;100353.16;;;3.61;70.79
51313;BME280;37397;53.226;10.400;2023-03-11T11:32:29;100347.19;;;3.59;70.76
51313;BME280;37397;53.226;10.400;2023-03-11T11:34:57;100355.44;;;3.67;70.52
51313;BME280;37397;53.226;10.400;2023-03-11T11:37:26;100354.22;;;3.68;70.62
51313;BME280;37397;53.226;10.400;2023-03-11T11:40:00;100360.97;;;3.70;70.68
51313;BME280;37397;53.226;10.400;2023-03-11T11:42:38;100360.53;;;3.72;70.47
51313;BME280;37397;53.226;10.400;2023-03-11T11:47:40;100338.53;;;3.67;70.59
51313;BME280;37397;53.226;10.400;2023-03-11T11:50:17;100354.00;;;3.75;70.60
51313;BME280;37397;53.226;10.400;2023-03-11T11:52:50;100351.56;;;3.77;70.43
51313;BME280;37397;53.226;10.400;2023-03-11T11:55:24;100355.94;;;3.78;70.40
51313;BME280;37397;53.226;10.400;2023-03-11T11:57:52;100360.34;;;3.79;70.51
51313;BME280;37397;53.226;10.400;2023-03-11T12:00:27;100363.50;;;3.81;70.46
51313;BME280;37397;53.226;10.400;2023-03-11T12:03:16;100349.84;;;3.79;70.16
51313;BME280;37397;53.226;10.400;2023-03-11T12:06:28;100356.66;;;3.82;69.73
51313;BME280;37397;53.226;10.400;2023-03-11T12:09:19;100348.19;;;3.82;69.87
51313;BME280;37397;53.226;10.400;2023-03-11T12:14:44;100346.03;;;3.86;70.04
51313;BME280;37397;53.226;10.400;2023-03-11T12:17:16;100338.38;;;3.87;70.12
51313;BME280;37397;53.226;10.400;2023-03-11T12:20:14;100349.75;;;3.83;70.09
51313;BME280;37397;53.226;10.400;2023-03-11T12:23:00;100343.13;;;3.90;69.93
51313;BME280;37397;53.226;10.400;2023-03-11T12:25:35;100346.28;;;3.92;70.11
51313;BME280;37397;53.226;10.400;2023-03-11T12:28:13;100342.31;;;3.89;70.01
51313;BME280;37397;53.226;10.400;2023-03-11T12:30:48;100351.03;;;3.95;69.92
51313;BME280;37397;53.226;10.400;2023-03-11T12:33:17;100351.16;;;3.91;69.84
51313;BME280;37397;53.226;10.400;2023-03-11T12:36:04;100341.44;;;3.92;69.89
51313;BME280;37397;53.226;10.400;2023-03-11T12:38:37;100343.91;;;3.90;70.02
51313;BME280;37397;53.226;10.400;2023-03-11T12:41:07;100351.81;;;3.95;69.92
51313;BME280;37397;53.226;10.400;2023-03-11T12:46:18;100350.03;;;4.01;69.78
51313;BME280;37397;53.226;10.400;2023-03-11T12:48:53;100346.88;;;3.99;69.83
51313;BME280;37397;53.226;10.400;2023-03-11T12:54:48;100350.38;;;4.04;69.52
51313;BME280;37397;53.226;10.400;2023-03-11T13:04:58;100356.72;;;4.08;69.76
51313;BME280;37397;53.226;10.400;2023-03-11T13:07:36;100356.94;;;4.13;69.61
51313;BME280;37397;53.226;10.400;2023-03-11T13:12:39;100355.28;;;4.16;69.73
51313;BME280;37397;53.226;10.400;2023-03-11T13:20:42;100361.16;;;4.22;69.50
51313;BME280;37397;53.226;10.400;2023-03-11T13:23:31;100368.84;;;4.21;69.48
51313;BME280;37397;53.226;10.400;2023-03-11T13:31:36;100378.00;;;4.25;69.43
51313;BME280;37397;53.226;10.400;2023-03-11T13:37:15;100375.84;;;4.29;69.54
51313;BME280;37397;53.226;10.400;2023-03-11T13:39:59;100383.09;;;4.30;69.56
51313;BME280;37397;53.226;10.400;2023-03-11T13:42:34;100369.88;;;4.27;69.47
51313;BME280;37397;53.226;10.400;2023-03-11T13:45:06;100382.97;;;4.34;69.37
51313;BME280;37397;53.226;10.400;2023-03-11T13:47:34;100375.66;;;4.36;69.88
51313;BME280;37397;53.226;10.400;2023-03-11T13:52:34;100392.50;;;4.40;69.61
51313;BME280;37397;53.226;10.400;2023-03-11T13:55:06;100387.16;;;4.42;69.55
51313;BME280;37397;53.226;10.400;2023-03-11T13:57:36;100386.72;;;4.44;69.64
51313;BME280;37397;53.226;10.400;2023-03-11T14:00:16;100381.06;;;4.44;69.48